KCNU/CNU METAR and TAF weather

Enter ICAO airport designator
Station Type Date Time Source
KCNU METAR 2018/04/23 10:52 UTC NOAA

KCNU 231052Z AUTO 36008KT 10SM FEW035 OVC070 11/05 A3006 RMK AO2 SLP177 T01110050


Station Type Date Time Source
KCNU Decoded METAR 2018/04/23 10:52 UTC NOAA

CHANUTE JOHNSON AIRPORT, KS, United States (KCNU) 37-40N 95-29W 297M
Apr 23, 2018 - 06:52 AM EDT / 2018.04.23 1052 UTC
Wind: from the N (360 degrees) at 9 MPH (8 KT):0
Visibility: 10 mile(s):0
Sky conditions: overcast
Temperature: 52.0 F (11.1 C)
Dew Point: 41.0 F (5.0 C)
Relative Humidity: 66%
Pressure (altimeter): 30.06 in. Hg (1017 hPa)
ob: KCNU 231052Z AUTO 36008KT 10SM FEW035 OVC070 11/05 A3006 RMK AO2 SLP177 T01110050
cycle: 11

Station Type Date Time Source
KCNU TAF 2018/04/23 06:24 UTC NOAA

TAF KCNU 230521Z 2306/2406 36007KT P6SM SCT040 BKN050
TEMPO 2306/2308 36007KT P6SM BKN015 OVC025
FM231400 36009KT P6SM SCT070
FM240200 03005KT P6SM FEW250


Example: see airport list